sensor_id;sensor_type;location;lat;lon;timestamp;pressure;altitude;pressure_sealevel;temperature;humidity
64862;BME280;62652;42.274;-71.436;2024-01-10T00:00:00;100910.0;;;1.1111111111111112;100.0
64862;BME280;62652;42.274;-71.436;2024-01-10T00:01:01;100900.0;;;1.1111111111111112;100.0
64862;BME280;62652;42.274;-71.436;2024-01-10T00:02:01;100890.0;;;1.1111111111111112;100.0
64862;BME280;62652;42.274;-71.436;2024-01-10T00:03:01;100880.0;;;1.1111111111111112;100.0
64862;BME280;62652;42.274;-71.436;2024-01-10T00:04:01;100880.0;;;1.1111111111111112;100.0
64862;BME280;62652;42.274;-71.436;2024-01-10T00:05:00;100880.0;;;1.2222222222222239;100.0
64862;BME280;62652;42.274;-71.436;2024-01-10T00:06:01;100870.0;;;1.2222222222222239;100.0
64862;BME280;62652;42.274;-71.436;2024-01-10T00:07:00;100870.0;;;1.1111111111111112;100.0
64862;BME280;62652;42.274;-71.436;2024-01-10T00:08:00;100860.0;;;1.1111111111111112;100.0
64862;BME280;62652;42.274;-71.436;2024-01-10T00:09:01;100860.0;;;1.1111111111111112;100.0
64862;BME280;62652;42.274;-71.436;2024-01-10T00:10:01;100860.0;;;1.2222222222222239;100.0
64862;BME280;62652;42.274;-71.436;2024-01-10T00:11:00;100850.0;;;1.2222222222222239;100.0
64862;BME280;62652;42.274;-71.436;2024-01-10T00:12:00;100840.0;;;1.2222222222222239;100.0
64862;BME280;62652;42.274;-71.436;2024-01-10T00:13:00;100830.0;;;1.1111111111111112;100.0
64862;BME280;62652;42.274;-71.436;2024-01-10T00:14:00;100840.0;;;1.1111111111111112;100.0
64862;BME280;62652;42.274;-71.436;2024-01-10T00:15:00;100830.0;;;1.1111111111111112;100.0
64862;BME280;62652;42.274;-71.436;2024-01-10T00:16:00;100840.0;;;1.2222222222222239;100.0
64862;BME280;62652;42.274;-71.436;2024-01-10T00:17:01;100840.0;;;1.2222222222222239;100.0
64862;BME280;62652;42.274;-71.436;2024-01-10T00:18:00;100830.0;;;1.2777777777777761;100.0
64862;BME280;62652;42.274;-71.436;2024-01-10T00:19:01;100820.0;;;1.2777777777777761;100.0
64862;BME280;62652;42.274;-71.436;2024-01-10T00:20:01;100820.0;;;1.2222222222222239;100.0
64862;BME280;62652;42.274;-71.436;2024-01-10T00:21:01;100820.0;;;1.2777777777777761;100.0
64862;BME280;62652;42.274;-71.436;2024-01-10T00:22:00;100820.0;;;1.2777777777777761;100.0
64862;BME280;62652;42.274;-71.436;2024-01-10T00:23:00;100810.0;;;1.2777777777777761;100.0
64862;BME280;62652;42.274;-71.436;2024-01-10T00:24:00;100810.0;;;1.3888888888888888;100.0
64862;BME280;62652;42.274;-71.436;2024-01-10T00:25:01;100810.0;;;1.2777777777777761;100.0
64862;BME280;62652;42.274;-71.436;2024-01-10T00:26:01;100810.0;;;1.3888888888888888;100.0
64862;BME280;62652;42.274;-71.436;2024-01-10T00:27:00;100800.0;;;1.3888888888888888;100.0
64862;BME280;62652;42.274;-71.436;2024-01-10T00:28:00;100790.0;;;1.3888888888888888;100.0
64862;BME280;62652;42.274;-71.436;2024-01-10T00:29:01;100780.0;;;1.5000000000000016;100.0
64862;BME280;62652;42.274;-71.436;2024-01-10T00:30:00;100780.0;;;1.3888888888888888;100.0
64862;BME280;62652;42.274;-71.436;2024-01-10T00:31:01;100770.0;;;1.3888888888888888;100.0
64862;BME280;62652;42.274;-71.436;2024-01-10T00:32:01;100770.0;;;1.3888888888888888;100.0
64862;BME280;62652;42.274;-71.436;2024-01-10T00:33:00;100770.0;;;1.5000000000000016;100.0
64862;BME280;62652;42.274;-71.436;2024-01-10T00:34:00;100770.0;;;1.5000000000000016;100.0
64862;BME280;62652;42.274;-71.436;2024-01-10T00:35:01;100760.0;;;1.5000000000000016;100.0
64862;BME280;62652;42.274;-71.436;2024-01-10T00:36:01;100760.0;;;1.5000000000000016;100.0
64862;BME280;62652;42.274;-71.436;2024-01-10T00:37:00;100750.0;;;1.5000000000000016;100.0
64862;BME280;62652;42.274;-71.436;2024-01-10T00:38:00;100740.0;;;1.5000000000000016;100.0
64862;BME280;62652;42.274;-71.436;2024-01-10T00:39:01;100740.0;;;1.5000000000000016;100.0
64862;BME280;62652;42.274;-71.436;2024-01-10T00:40:00;100730.0;;;1.5000000000000016;100.0
64862;BME280;62652;42.274;-71.436;2024-01-10T00:41:00;100730.0;;;1.5000000000000016;100.0
64862;BME280;62652;42.274;-71.436;2024-01-10T00:42:00;100730.0;;;1.6111111111111103;100.0
64862;BME280;62652;42.274;-71.436;2024-01-10T00:43:03;100720.0;;;1.6111111111111103;100.0
64862;BME280;62652;42.274;-71.436;2024-01-10T00:44:00;100720.0;;;1.5000000000000016;100.0
64862;BME280;62652;42.274;-71.436;2024-01-10T00:45:01;100720.0;;;1.6111111111111103;100.0
64862;BME280;62652;42.274;-71.436;2024-01-10T00:46:00;100720.0;;;1.722222222222223;100.0
64862;BME280;62652;42.274;-71.436;2024-01-10T00:47:01;100710.0;;;1.6111111111111103;100.0
64862;BME280;62652;42.274;-71.436;2024-01-10T00:48:00;100710.0;;;1.6111111111111103;100.0
64862;BME280;62652;42.274;-71.436;2024-01-10T00:49:01;100700.0;;;1.722222222222223;100.0
64862;BME280;62652;42.274;-71.436;2024-01-10T00:50:00;100710.0;;;1.722222222222223;100.0
64862;BME280;62652;42.274;-71.436;2024-01-10T00:51:00;100710.0;;;1.7777777777777795;100.0
64862;BME280;62652;42.274;-71.436;2024-01-10T00:52:01;100690.0;;;1.722222222222223;100.0
64862;BME280;62652;42.274;-71.436;2024-01-10T00:53:00;100700.0;;;1.722222222222223;100.0
64862;BME280;62652;42.274;-71.436;2024-01-10T00:54:01;100690.0;;;1.722222222222223;100.0
64862;BME280;62652;42.274;-71.436;2024-01-10T00:55:01;100680.0;;;1.7777777777777795;100.0
64862;BME280;62652;42.274;-71.436;2024-01-10T00:56:01;100680.0;;;1.7777777777777795;100.0
64862;BME280;62652;42.274;-71.436;2024-01-10T00:57:01;100680.0;;;1.7777777777777795;100.0
64862;BME280;62652;42.274;-71.436;2024-01-10T00:58:01;100670.0;;;1.8888888888888882;100.0
64862;BME280;62652;42.274;-71.436;2024-01-10T00:59:01;100660.0;;;2.000000000000001;100.0
64862;BME280;62652;42.274;-71.436;2024-01-10T01:00:01;100640.0;;;2.000000000000001;100.0
64862;BME280;62652;42.274;-71.436;2024-01-10T01:01:01;100630.0;;;2.000000000000001;100.0
64862;BME280;62652;42.274;-71.436;2024-01-10T01:02:01;100620.0;;;1.8888888888888882;100.0
64862;BME280;62652;42.274;-71.436;2024-01-10T01:03:01;100610.0;;;1.8888888888888882;100.0
64862;BME280;62652;42.274;-71.436;2024-01-10T01:04:00;100600.0;;;2.000000000000001;100.0
64862;BME280;62652;42.274;-71.436;2024-01-10T01:05:02;100600.0;;;2.000000000000001;100.0
64862;BME280;62652;42.274;-71.436;2024-01-10T01:06:01;100600.0;;;1.8888888888888882;100.0
64862;BME280;62652;42.274;-71.436;2024-01-10T01:07:00;100610.0;;;2.000000000000001;100.0
64862;BME280;62652;42.274;-71.436;2024-01-10T01:08:00;100600.0;;;2.000000000000001;100.0
64862;BME280;62652;42.274;-71.436;2024-01-10T01:09:01;100590.0;;;2.1111111111111094;100.0
64862;BME280;62652;42.274;-71.436;2024-01-10T01:10:01;100580.0;;;2.000000000000001;100.0
64862;BME280;62652;42.274;-71.436;2024-01-10T01:11:00;100570.0;;;2.1111111111111094;100.0
64862;BME280;62652;42.274;-71.436;2024-01-10T01:12:00;100570.0;;;2.2222222222222223;100.0
64862;BME280;62652;42.274;-71.436;2024-01-10T01:13:00;100560.0;;;2.2222222222222223;100.0
64862;BME280;62652;42.274;-71.436;2024-01-10T01:14:01;100570.0;;;2.2222222222222223;100.0
64862;BME280;62652;42.274;-71.436;2024-01-10T01:15:00;100550.0;;;2.2222222222222223;100.0
64862;BME280;62652;42.274;-71.436;2024-01-10T01:16:01;100550.0;;;2.2222222222222223;100.0
64862;BME280;62652;42.274;-71.436;2024-01-10T01:17:00;100550.0;;;2.2222222222222223;100.0
64862;BME280;62652;42.274;-71.436;2024-01-10T01:18:00;100550.0;;;2.2777777777777786;100.0
64862;BME280;62652;42.274;-71.436;2024-01-10T01:19:01;100550.0;;;2.2777777777777786;100.0
64862;BME280;62652;42.274;-71.436;2024-01-10T01:20:01;100550.0;;;2.3888888888888875;100.0
64862;BME280;62652;42.274;-71.436;2024-01-10T01:21:01;100530.0;;;2.3888888888888875;100.0
64862;BME280;62652;42.274;-71.436;2024-01-10T01:22:00;100520.0;;;2.3888888888888875;100.0
64862;BME280;62652;42.274;-71.436;2024-01-10T01:23:00;100510.0;;;2.2777777777777786;100.0
64862;BME280;62652;42.274;-71.436;2024-01-10T01:24:01;100510.0;;;2.5;100.0
64862;BME280;62652;42.274;-71.436;2024-01-10T01:25:00;100500.0;;;2.5;100.0
64862;BME280;62652;42.274;-71.436;2024-01-10T01:26:01;100490.0;;;2.3888888888888875;100.0
64862;BME280;62652;42.274;-71.436;2024-01-10T01:27:02;100490.0;;;2.3888888888888875;100.0
64862;BME280;62652;42.274;-71.436;2024-01-10T01:28:00;100480.0;;;2.3888888888888875;100.0
64862;BME280;62652;42.274;-71.436;2024-01-10T01:29:01;100460.0;;;2.2777777777777786;100.0
64862;BME280;62652;42.274;-71.436;2024-01-10T01:30:01;100460.0;;;2.3888888888888875;100.0
64862;BME280;62652;42.274;-71.436;2024-01-10T01:31:00;100450.0;;;2.5;100.0
64862;BME280;62652;42.274;-71.436;2024-01-10T01:32:00;100440.0;;;2.5;100.0
64862;BME280;62652;42.274;-71.436;2024-01-10T01:33:00;100440.0;;;2.5;100.0
64862;BME280;62652;42.274;-71.436;2024-01-10T01:34:01;100440.0;;;2.5;100.0
64862;BME280;62652;42.274;-71.436;2024-01-10T01:35:01;100430.0;;;2.6111111111111125;100.0
64862;BME280;62652;42.274;-71.436;2024-01-10T01:36:01;100420.0;;;2.6111111111111125;100.0
64862;BME280;62652;42.274;-71.436;2024-01-10T01:37:00;100420.0;;;2.6111111111111125;100.0
64862;BME280;62652;42.274;-71.436;2024-01-10T01:38:01;100410.0;;;2.6111111111111125;100.0
64862;BME280;62652;42.274;-71.436;2024-01-10T01:39:00;100390.0;;;2.6111111111111125;100.0
64862;BME280;62652;42.274;-71.436;2024-01-10T01:40:01;100380.0;;;2.7222222222222214;100.0
64862;BME280;62652;42.274;-71.436;2024-01-10T01:41:00;100380.0;;;2.6111111111111125;100.0
64862;BME280;62652;42.274;-71.436;2024-01-10T01:42:00;100370.0;;;2.7222222222222214;100.0
64862;BME280;62652;42.274;-71.436;2024-01-10T01:43:00;100370.0;;;2.6111111111111125;100.0
64862;BME280;62652;42.274;-71.436;2024-01-10T01:44:01;100360.0;;;2.6111111111111125;100.0
64862;BME280;62652;42.274;-71.436;2024-01-10T01:45:01;100350.0;;;2.7222222222222214;100.0
64862;BME280;62652;42.274;-71.436;2024-01-10T01:46:02;100330.0;;;2.6111111111111125;100.0
64862;BME280;62652;42.274;-71.436;2024-01-10T01:47:01;100340.0;;;2.7222222222222214;100.0
64862;BME280;62652;42.274;-71.436;2024-01-10T01:48:00;100340.0;;;2.7777777777777777;100.0
64862;BME280;62652;42.274;-71.436;2024-01-10T01:49:01;100330.0;;;2.7777777777777777;100.0
64862;BME280;62652;42.274;-71.436;2024-01-10T01:50:01;100340.0;;;2.7777777777777777;100.0
64862;BME280;62652;42.274;-71.436;2024-01-10T01:51:04;100340.0;;;2.7222222222222214;100.0
64862;BME280;62652;42.274;-71.436;2024-01-10T01:52:01;100340.0;;;2.7777777777777777;100.0
64862;BME280;62652;42.274;-71.436;2024-01-10T01:53:00;100340.0;;;2.8888888888888906;100.0
64862;BME280;62652;42.274;-71.436;2024-01-10T01:54:00;100330.0;;;2.8888888888888906;100.0
64862;BME280;62652;42.274;-71.436;2024-01-10T01:55:01;100330.0;;;2.8888888888888906;100.0
64862;BME280;62652;42.274;-71.436;2024-01-10T01:56:03;100320.0;;;2.8888888888888906;100.0
64862;BME280;62652;42.274;-71.436;2024-01-10T01:57:01;100310.0;;;2.999999999999999;100.0
64862;BME280;62652;42.274;-71.436;2024-01-10T01:58:01;100300.0;;;2.999999999999999;100.0
64862;BME280;62652;42.274;-71.436;2024-01-10T01:59:02;100320.0;;;2.999999999999999;100.0
64862;BME280;62652;42.274;-71.436;2024-01-10T02:00:01;100320.0;;;2.999999999999999;100.0
64862;BME280;62652;42.274;-71.436;2024-01-10T02:01:02;100320.0;;;2.999999999999999;100.0
64862;BME280;62652;42.274;-71.436;2024-01-10T02:02:03;100300.0;;;2.999999999999999;100.0
64862;BME280;62652;42.274;-71.436;2024-01-10T02:03:01;100290.0;;;2.999999999999999;100.0
64862;BME280;62652;42.274;-71.436;2024-01-10T02:04:01;100290.0;;;3.111111111111112;100.0
64862;BME280;62652;42.274;-71.436;2024-01-10T02:05:01;100300.0;;;3.111111111111112;100.0
64862;BME280;62652;42.274;-71.436;2024-01-10T02:06:01;100300.0;;;3.111111111111112;100.0
64862;BME280;62652;42.274;-71.436;2024-01-10T02:07:01;100280.0;;;3.2222222222222205;100.0
64862;BME280;62652;42.274;-71.436;2024-01-10T02:08:01;100280.0;;;3.2222222222222205;100.0
64862;BME280;62652;42.274;-71.436;2024-01-10T02:09:01;100290.0;;;3.277777777777777;100.0
64862;BME280;62652;42.274;-71.436;2024-01-10T02:10:00;100300.0;;;3.277777777777777;100.0
64862;BME280;62652;42.274;-71.436;2024-01-10T02:11:02;100290.0;;;3.3888888888888897;100.0
64862;BME280;62652;42.274;-71.436;2024-01-10T02:12:01;100280.0;;;3.277777777777777;100.0
64862;BME280;62652;42.274;-71.436;2024-01-10T02:13:01;100280.0;;;3.3888888888888897;100.0
64862;BME280;62652;42.274;-71.436;2024-01-10T02:14:01;100290.0;;;3.277777777777777;100.0
64862;BME280;62652;42.274;-71.436;2024-01-10T02:15:01;100280.0;;;3.277777777777777;100.0
64862;BME280;62652;42.274;-71.436;2024-01-10T02:16:01;100280.0;;;3.277777777777777;100.0
64862;BME280;62652;42.274;-71.436;2024-01-10T02:17:01;100290.0;;;3.277777777777777;100.0
64862;BME280;62652;42.274;-71.436;2024-01-10T02:18:01;100280.0;;;3.3888888888888897;100.0
64862;BME280;62652;42.274;-71.436;2024-01-10T02:19:00;100280.0;;;3.4999999999999982;100.0
64862;BME280;62652;42.274;-71.436;2024-01-10T02:20:08;100280.0;;;3.3888888888888897;100.0
64862;BME280;62652;42.274;-71.436;2024-01-10T02:21:01;100280.0;;;3.4999999999999982;100.0
64862;BME280;62652;42.274;-71.436;2024-01-10T02:22:01;100270.0;;;3.4999999999999982;100.0
64862;BME280;62652;42.274;-71.436;2024-01-10T02:23:00;100270.0;;;3.7222222222222237;100.0
64862;BME280;62652;42.274;-71.436;2024-01-10T02:24:00;100260.0;;;3.7222222222222237;100.0
64862;BME280;62652;42.274;-71.436;2024-01-10T02:25:01;100270.0;;;3.7222222222222237;100.0
64862;BME280;62652;42.274;-71.436;2024-01-10T02:26:01;100260.0;;;3.7222222222222237;100.0
64862;BME280;62652;42.274;-71.436;2024-01-10T02:27:01;100270.0;;;3.7222222222222237;100.0
64862;BME280;62652;42.274;-71.436;2024-01-10T02:28:00;100270.0;;;3.611111111111111;100.0
64862;BME280;62652;42.274;-71.436;2024-01-10T02:29:00;100250.0;;;3.7222222222222237;100.0
64862;BME280;62652;42.274;-71.436;2024-01-10T02:30:02;100240.0;;;3.611111111111111;100.0
64862;BME280;62652;42.274;-71.436;2024-01-10T02:31:01;100240.0;;;3.7222222222222237;100.0
64862;BME280;62652;42.274;-71.436;2024-01-10T02:32:00;100210.0;;;3.611111111111111;100.0
64862;BME280;62652;42.274;-71.436;2024-01-10T02:33:02;100210.0;;;3.7222222222222237;100.0
64862;BME280;62652;42.274;-71.436;2024-01-10T02:34:00;100200.0;;;3.7222222222222237;100.0
64862;BME280;62652;42.274;-71.436;2024-01-10T02:35:01;100190.0;;;3.7222222222222237;100.0
64862;BME280;62652;42.274;-71.436;2024-01-10T02:36:00;100170.0;;;3.7222222222222237;100.0
64862;BME280;62652;42.274;-71.436;2024-01-10T02:37:01;100170.0;;;3.611111111111111;100.0
64862;BME280;62652;42.274;-71.436;2024-01-10T02:38:02;100170.0;;;3.611111111111111;100.0
64862;BME280;62652;42.274;-71.436;2024-01-10T02:39:00;100160.0;;;3.611111111111111;100.0
64862;BME280;62652;42.274;-71.436;2024-01-10T02:40:01;100150.0;;;3.611111111111111;100.0
64862;BME280;62652;42.274;-71.436;2024-01-10T02:41:00;100150.0;;;3.7222222222222237;100.0
64862;BME280;62652;42.274;-71.436;2024-01-10T02:42:00;100140.0;;;3.7222222222222237;100.0
64862;BME280;62652;42.274;-71.436;2024-01-10T02:43:01;100130.0;;;3.7222222222222237;100.0
64862;BME280;62652;42.274;-71.436;2024-01-10T02:44:01;100120.0;;;3.7777777777777763;100.0
64862;BME280;62652;42.274;-71.436;2024-01-10T02:45:00;100120.0;;;3.7777777777777763;100.0
64862;BME280;62652;42.274;-71.436;2024-01-10T02:46:00;100120.0;;;3.7777777777777763;100.0
64862;BME280;62652;42.274;-71.436;2024-01-10T02:47:00;100130.0;;;3.888888888888889;100.0
64862;BME280;62652;42.274;-71.436;2024-01-10T02:48:00;100100.0;;;3.888888888888889;100.0
64862;BME280;62652;42.274;-71.436;2024-01-10T02:49:00;100100.0;;;3.888888888888889;100.0
64862;BME280;62652;42.274;-71.436;2024-01-10T02:50:00;100110.0;;;3.7777777777777763;100.0
64862;BME280;62652;42.274;-71.436;2024-01-10T02:51:01;100100.0;;;3.888888888888889;100.0
64862;BME280;62652;42.274;-71.436;2024-01-10T02:52:01;100090.0;;;4.000000000000002;100.0
64862;BME280;62652;42.274;-71.436;2024-01-10T02:53:00;100090.0;;;3.888888888888889;100.0
64862;BME280;62652;42.274;-71.436;2024-01-10T02:54:00;100090.0;;;3.888888888888889;100.0
64862;BME280;62652;42.274;-71.436;2024-01-10T02:55:01;100080.0;;;3.888888888888889;100.0
64862;BME280;62652;42.274;-71.436;2024-01-10T02:56:00;100080.0;;;4.000000000000002;100.0
64862;BME280;62652;42.274;-71.436;2024-01-10T02:57:01;100100.0;;;4.111111111111111;100.0
64862;BME280;62652;42.274;-71.436;2024-01-10T02:58:00;100080.0;;;4.000000000000002;100.0
64862;BME280;62652;42.274;-71.436;2024-01-10T02:59:00;100090.0;;;4.111111111111111;100.0
64862;BME280;62652;42.274;-71.436;2024-01-10T03:00:00;100080.0;;;4.111111111111111;100.0
64862;BME280;62652;42.274;-71.436;2024-01-10T03:01:01;100080.0;;;4.111111111111111;100.0
64862;BME280;62652;42.274;-71.436;2024-01-10T03:02:01;100060.0;;;4.111111111111111;100.0
64862;BME280;62652;42.274;-71.436;2024-01-10T03:03:00;100050.0;;;4.000000000000002;100.0
64862;BME280;62652;42.274;-71.436;2024-01-10T03:04:00;100050.0;;;4.111111111111111;100.0
64862;BME280;62652;42.274;-71.436;2024-01-10T03:05:00;100040.0;;;4.111111111111111;100.0
64862;BME280;62652;42.274;-71.436;2024-01-10T03:06:01;100030.0;;;4.222222222222223;100.0
64862;BME280;62652;42.274;-71.436;2024-01-10T03:07:01;100020.0;;;4.222222222222223;100.0
64862;BME280;62652;42.274;-71.436;2024-01-10T03:08:00;100010.0;;;4.222222222222223;100.0
64862;BME280;62652;42.274;-71.436;2024-01-10T03:09:01;100000.0;;;4.222222222222223;100.0
64862;BME280;62652;42.274;-71.436;2024-01-10T03:10:00;99980.0;;;4.222222222222223;100.0
64862;BME280;62652;42.274;-71.436;2024-01-10T03:11:01;99970.0;;;4.222222222222223;100.0
64862;BME280;62652;42.274;-71.436;2024-01-10T03:12:00;99960.0;;;4.222222222222223;100.0
64862;BME280;62652;42.274;-71.436;2024-01-10T03:13:00;99960.0;;;4.2777777777777795;100.0
64862;BME280;62652;42.274;-71.436;2024-01-10T03:14:02;99960.0;;;4.2777777777777795;100.0
64862;BME280;62652;42.274;-71.436;2024-01-10T03:15:00;99960.0;;;4.2777777777777795;100.0
64862;BME280;62652;42.274;-71.436;2024-01-10T03:16:00;99950.0;;;4.388888888888888;100.0
64862;BME280;62652;42.274;-71.436;2024-01-10T03:17:01;99930.0;;;4.222222222222223;100.0
64862;BME280;62652;42.274;-71.436;2024-01-10T03:18:00;99920.0;;;4.2777777777777795;100.0
64862;BME280;62652;42.274;-71.436;2024-01-10T03:19:01;99930.0;;;4.222222222222223;100.0
64862;BME280;62652;42.274;-71.436;2024-01-10T03:20:00;99930.0;;;4.222222222222223;100.0
64862;BME280;62652;42.274;-71.436;2024-01-10T03:21:00;99930.0;;;4.2777777777777795;100.0
64862;BME280;62652;42.274;-71.436;2024-01-10T03:22:00;99930.0;;;4.2777777777777795;100.0
64862;BME280;62652;42.274;-71.436;2024-01-10T03:23:01;99910.0;;;4.2777777777777795;100.0
64862;BME280;62652;42.274;-71.436;2024-01-10T03:24:01;99910.0;;;4.2777777777777795;100.0
64862;BME280;62652;42.274;-71.436;2024-01-10T03:25:01;99910.0;;;4.2777777777777795;100.0
64862;BME280;62652;42.274;-71.436;2024-01-10T03:26:00;99900.0;;;4.2777777777777795;100.0
64862;BME280;62652;42.274;-71.436;2024-01-10T03:27:01;99890.0;;;4.2777777777777795;100.0
64862;BME280;62652;42.274;-71.436;2024-01-10T03:28:01;99890.0;;;4.388888888888888;100.0
64862;BME280;62652;42.274;-71.436;2024-01-10T03:29:00;99870.0;;;4.388888888888888;100.0
64862;BME280;62652;42.274;-71.436;2024-01-10T03:30:00;99870.0;;;4.2777777777777795;100.0
64862;BME280;62652;42.274;-71.436;2024-01-10T03:31:00;99880.0;;;4.388888888888888;100.0
64862;BME280;62652;42.274;-71.436;2024-01-10T03:32:00;99870.0;;;4.500000000000001;100.0
64862;BME280;62652;42.274;-71.436;2024-01-10T03:33:00;99870.0;;;4.388888888888888;100.0
64862;BME280;62652;42.274;-71.436;2024-01-10T03:34:01;99860.0;;;4.500000000000001;100.0
64862;BME280;62652;42.274;-71.436;2024-01-10T03:35:00;99860.0;;;4.500000000000001;100.0
64862;BME280;62652;42.274;-71.436;2024-01-10T03:36:00;99860.0;;;4.388888888888888;100.0
64862;BME280;62652;42.274;-71.436;2024-01-10T03:37:00;99840.0;;;4.500000000000001;100.0
64862;BME280;62652;42.274;-71.436;2024-01-10T03:38:00;99840.0;;;4.500000000000001;100.0
64862;BME280;62652;42.274;-71.436;2024-01-10T03:39:01;99840.0;;;4.388888888888888;100.0
64862;BME280;62652;42.274;-71.436;2024-01-10T03:40:01;99830.0;;;4.388888888888888;100.0
64862;BME280;62652;42.274;-71.436;2024-01-10T03:41:00;99840.0;;;4.500000000000001;100.0
64862;BME280;62652;42.274;-71.436;2024-01-10T03:42:00;99840.0;;;4.61111111111111;100.0
64862;BME280;62652;42.274;-71.436;2024-01-10T03:43:00;99820.0;;;4.500000000000001;100.0
64862;BME280;62652;42.274;-71.436;2024-01-10T03:44:00;99800.0;;;4.500000000000001;100.0
64862;BME280;62652;42.274;-71.436;2024-01-10T03:45:01;99790.0;;;4.500000000000001;100.0
64862;BME280;62652;42.274;-71.436;2024-01-10T03:46:01;99810.0;;;4.388888888888888;100.0
64862;BME280;62652;42.274;-71.436;2024-01-10T03:47:00;99800.0;;;4.388888888888888;100.0
64862;BME280;62652;42.274;-71.436;2024-01-10T03:48:00;99800.0;;;4.500000000000001;100.0
64862;BME280;62652;42.274;-71.436;2024-01-10T03:49:00;99790.0;;;4.500000000000001;100.0
64862;BME280;62652;42.274;-71.436;2024-01-10T03:50:03;99780.0;;;4.500000000000001;100.0
64862;BME280;62652;42.274;-71.436;2024-01-10T03:51:00;99770.0;;;4.500000000000001;100.0
64862;BME280;62652;42.274;-71.436;2024-01-10T03:52:01;99760.0;;;4.500000000000001;100.0
64862;BME280;62652;42.274;-71.436;2024-01-10T03:53:00;99750.0;;;4.500000000000001;100.0
64862;BME280;62652;42.274;-71.436;2024-01-10T03:54:01;99740.0;;;4.500000000000001;100.0
64862;BME280;62652;42.274;-71.436;2024-01-10T03:55:00;99730.0;;;4.500000000000001;100.0
64862;BME280;62652;42.274;-71.436;2024-01-10T03:56:03;99710.0;;;4.388888888888888;100.0
64862;BME280;62652;42.274;-71.436;2024-01-10T03:57:01;99710.0;;;4.388888888888888;100.0
64862;BME280;62652;42.274;-71.436;2024-01-10T03:58:00;99710.0;;;4.388888888888888;100.0
64862;BME280;62652;42.274;-71.436;2024-01-10T03:59:01;99690.0;;;4.2777777777777795;100.0
64862;BME280;62652;42.274;-71.436;2024-01-10T04:00:00;99680.0;;;4.2777777777777795;100.0
64862;BME280;62652;42.274;-71.436;2024-01-10T04:01:04;99670.0;;;4.2777777777777795;100.0
64862;BME280;62652;42.274;-71.436;2024-01-10T04:02:00;99670.0;;;4.2777777777777795;100.0
64862;BME280;62652;42.274;-71.436;2024-01-10T04:03:00;99670.0;;;4.500000000000001;100.0
64862;BME280;62652;42.274;-71.436;2024-01-10T04:04:00;99660.0;;;4.61111111111111;100.0
64862;BME280;62652;42.274;-71.436;2024-01-10T04:05:00;99670.0;;;4.500000000000001;100.0
64862;BME280;62652;42.274;-71.436;2024-01-10T04:06:01;99660.0;;;4.500000000000001;100.0
64862;BME280;62652;42.274;-71.436;2024-01-10T04:07:01;99660.0;;;4.61111111111111;100.0
64862;BME280;62652;42.274;-71.436;2024-01-10T04:08:01;99650.0;;;4.61111111111111;100.0
64862;BME280;62652;42.274;-71.436;2024-01-10T04:09:00;99660.0;;;4.722222222222222;100.0
64862;BME280;62652;42.274;-71.436;2024-01-10T04:10:00;99650.0;;;4.61111111111111;100.0
64862;BME280;62652;42.274;-71.436;2024-01-10T04:11:01;99650.0;;;4.61111111111111;100.0
64862;BME280;62652;42.274;-71.436;2024-01-10T04:12:04;99660.0;;;4.61111111111111;100.0
64862;BME280;62652;42.274;-71.436;2024-01-10T04:13:01;99650.0;;;4.388888888888888;100.0
64862;BME280;62652;42.274;-71.436;2024-01-10T04:14:00;99640.0;;;4.61111111111111;100.0
64862;BME280;62652;42.274;-71.436;2024-01-10T04:15:00;99630.0;;;4.61111111111111;100.0
64862;BME280;62652;42.274;-71.436;2024-01-10T04:16:00;99640.0;;;4.61111111111111;100.0
64862;BME280;62652;42.274;-71.436;2024-01-10T04:17:01;99620.0;;;4.61111111111111;100.0
64862;BME280;62652;42.274;-71.436;2024-01-10T04:18:00;99620.0;;;4.722222222222222;100.0
64862;BME280;62652;42.274;-71.436;2024-01-10T04:19:00;99610.0;;;4.722222222222222;100.0
64862;BME280;62652;42.274;-71.436;2024-01-10T04:20:01;99610.0;;;4.722222222222222;100.0
64862;BME280;62652;42.274;-71.436;2024-01-10T04:21:01;99600.0;;;4.722222222222222;100.0
64862;BME280;62652;42.274;-71.436;2024-01-10T04:22:01;99590.0;;;4.722222222222222;100.0
64862;BME280;62652;42.274;-71.436;2024-01-10T04:23:01;99570.0;;;4.61111111111111;100.0
64862;BME280;62652;42.274;-71.436;2024-01-10T04:24:00;99560.0;;;4.722222222222222;100.0
64862;BME280;62652;42.274;-71.436;2024-01-10T04:25:04;99550.0;;;4.777777777777779;100.0
64862;BME280;62652;42.274;-71.436;2024-01-10T04:26:01;99550.0;;;4.722222222222222;100.0
64862;BME280;62652;42.274;-71.436;2024-01-10T04:27:00;99550.0;;;4.61111111111111;100.0